Aeroporto :
LOGIN :

Iscrizione | Disclaimer

   EN    FR    IT 

 










Sommario :    VFR   VFR Marginale   IFR   IFR Intensivo   IFR Molto Intensivo
Visibilità : 
Base nubi : 
>= 8 km
>= 3000ft
5 / 8 km
1000 / 3000 ft
1500m / 5 km
500 / 1000 ft
800 / 1500m
200 / 500 ft
< 800m
< 200 ft
Simboli :   Temporali  Nebbia  Neve Forte  Precipitazioni Forti  Vento > 20 kt
SIGMETs :   Varie  Temporali  Ghiacco  Turbolenza  Onda orograficha  Ceneri Vulcaniche







- Altitudine del aeroporto : 1276 ft
- Codice IATA : STR


EDDS - Stuttgart

ULTIMO METAR :
  • 201350Z 10009KT 060V140 CAVOK 23/01 Q1025 NOSIG

METARs OBSOLETI :
  • 201320Z 12009KT 070V160 CAVOK 23/01 Q1025 NOSIG
  • 201250Z 09009KT 050V150 CAVOK 22/01 Q1026 NOSIG
  • 201220Z 09007KT 040V180 CAVOK 22/02 Q1026 NOSIG
  • 201150Z VRB05KT CAVOK 22/01 Q1026 NOSIG
  • 201120Z 06009KT 030V100 CAVOK 22/04 Q1026 NOSIG

TAF TAF EDDS
Valido dal 20 a 12 ore il 21 a 12 ore UTC


201100Z 2012/2112 05008KT CAVOK
BECMG 2019/2022 VRB03KT
BECMG 2108/2111 06007KT
Nessun NOTAM noto per questo aeroporto.



MetMap, La meteo Aeronautica in un colpo d'occhio ! - Copyright ORBIFLY Dicembre 2007 - Disclaimer

ORBIFLY MET'MAP TEAM :

Programmazione e sviluppo : Alexandra Zaïnal
Concezione e sviluppo : Baudouin d'Aumeries
Co-Programmazione e sviluppo : Marc-Olivier Méhu
Supporto tecnico e logistico : Manuel Goepfert
Aiuto per la traduzione : Arnaldo La Scala

Contatto : metmap@orbifly.com




FONTI E CREDITI :

   NOAA